sensor_id;sensor_type;location;lat;lon;timestamp;P1;durP1;ratioP1;P2;durP2;ratioP2
56997;SDS011;42890;44.244;22.530;2024-02-16T00:00:17;133.68;;;66.13;;
56997;SDS011;42890;44.244;22.530;2024-02-16T00:02:43;42.80;;;31.77;;
56997;SDS011;42890;44.244;22.530;2024-02-16T00:05:11;16.13;;;14.40;;
56997;SDS011;42890;44.244;22.530;2024-02-16T00:07:38;15.13;;;13.50;;
56997;SDS011;42890;44.244;22.530;2024-02-16T00:10:04;24.92;;;18.52;;
56997;SDS011;42890;44.244;22.530;2024-02-16T00:12:31;72.97;;;41.25;;
56997;SDS011;42890;44.244;22.530;2024-02-16T00:14:58;348.02;;;154.25;;
56997;SDS011;42890;44.244;22.530;2024-02-16T00:17:24;139.02;;;60.72;;
56997;SDS011;42890;44.244;22.530;2024-02-16T00:19:54;100.78;;;50.33;;
56997;SDS011;42890;44.244;22.530;2024-02-16T00:22:20;74.82;;;48.92;;
56997;SDS011;42890;44.244;22.530;2024-02-16T00:24:47;68.80;;;42.58;;
56997;SDS011;42890;44.244;22.530;2024-02-16T00:27:13;44.45;;;29.02;;
56997;SDS011;42890;44.244;22.530;2024-02-16T00:29:39;39.58;;;28.20;;
56997;SDS011;42890;44.244;22.530;2024-02-16T00:32:06;31.20;;;21.67;;
56997;SDS011;42890;44.244;22.530;2024-02-16T00:34:33;268.60;;;92.38;;
56997;SDS011;42890;44.244;22.530;2024-02-16T00:36:59;249.18;;;88.68;;
56997;SDS011;42890;44.244;22.530;2024-02-16T00:39:25;50.35;;;31.48;;
56997;SDS011;42890;44.244;22.530;2024-02-16T00:41:52;23.13;;;19.13;;
56997;SDS011;42890;44.244;22.530;2024-02-16T00:44:18;35.45;;;24.20;;
56997;SDS011;42890;44.244;22.530;2024-02-16T00:46:44;29.02;;;21.25;;
56997;SDS011;42890;44.244;22.530;2024-02-16T00:49:10;35.17;;;26.60;;
56997;SDS011;42890;44.244;22.530;2024-02-16T00:51:37;33.53;;;26.17;;
56997;SDS011;42890;44.244;22.530;2024-02-16T00:54:03;33.25;;;25.48;;
56997;SDS011;42890;44.244;22.530;2024-02-16T00:56:30;37.13;;;27.30;;
56997;SDS011;42890;44.244;22.530;2024-02-16T00:58:56;35.00;;;26.70;;
56997;SDS011;42890;44.244;22.530;2024-02-16T01:01:22;73.35;;;43.58;;
56997;SDS011;42890;44.244;22.530;2024-02-16T01:03:49;45.28;;;31.13;;
56997;SDS011;42890;44.244;22.530;2024-02-16T01:06:17;99.22;;;61.65;;
56997;SDS011;42890;44.244;22.530;2024-02-16T01:08:43;78.53;;;55.67;;
56997;SDS011;42890;44.244;22.530;2024-02-16T01:11:09;170.13;;;83.55;;
56997;SDS011;42890;44.244;22.530;2024-02-16T01:13:35;222.10;;;103.63;;
56997;SDS011;42890;44.244;22.530;2024-02-16T01:16:02;240.88;;;112.05;;
56997;SDS011;42890;44.244;22.530;2024-02-16T01:18:29;133.38;;;72.15;;
56997;SDS011;42890;44.244;22.530;2024-02-16T01:20:56;101.65;;;60.22;;
56997;SDS011;42890;44.244;22.530;2024-02-16T01:23:23;49.40;;;35.28;;
56997;SDS011;42890;44.244;22.530;2024-02-16T01:25:49;28.23;;;25.13;;
56997;SDS011;42890;44.244;22.530;2024-02-16T01:28:15;25.73;;;21.92;;
56997;SDS011;42890;44.244;22.530;2024-02-16T01:30:42;26.08;;;22.55;;
56997;SDS011;42890;44.244;22.530;2024-02-16T01:33:08;21.92;;;18.75;;
56997;SDS011;42890;44.244;22.530;2024-02-16T01:35:34;21.23;;;18.85;;
56997;SDS011;42890;44.244;22.530;2024-02-16T01:38:00;20.88;;;18.33;;
56997;SDS011;42890;44.244;22.530;2024-02-16T01:40:27;21.50;;;17.52;;
56997;SDS011;42890;44.244;22.530;2024-02-16T01:42:53;32.28;;;25.00;;
56997;SDS011;42890;44.244;22.530;2024-02-16T01:45:20;192.02;;;88.25;;
56997;SDS011;42890;44.244;22.530;2024-02-16T01:47:50;436.25;;;201.70;;
56997;SDS011;42890;44.244;22.530;2024-02-16T01:50:17;231.68;;;102.40;;
56997;SDS011;42890;44.244;22.530;2024-02-16T01:52:44;37.58;;;28.92;;
56997;SDS011;42890;44.244;22.530;2024-02-16T01:55:10;133.88;;;64.68;;
56997;SDS011;42890;44.244;22.530;2024-02-16T01:57:40;23.42;;;19.70;;
56997;SDS011;42890;44.244;22.530;2024-02-16T02:00:08;25.00;;;20.23;;
56997;SDS011;42890;44.244;22.530;2024-02-16T02:02:37;18.27;;;15.57;;
56997;SDS011;42890;44.244;22.530;2024-02-16T02:05:03;18.25;;;16.30;;
56997;SDS011;42890;44.244;22.530;2024-02-16T02:07:30;18.52;;;16.55;;
56997;SDS011;42890;44.244;22.530;2024-02-16T02:09:56;22.35;;;18.55;;
56997;SDS011;42890;44.244;22.530;2024-02-16T02:12:22;22.13;;;18.33;;
56997;SDS011;42890;44.244;22.530;2024-02-16T02:14:49;25.58;;;21.98;;
56997;SDS011;42890;44.244;22.530;2024-02-16T02:17:16;29.90;;;26.23;;
56997;SDS011;42890;44.244;22.530;2024-02-16T02:19:42;26.33;;;21.90;;
56997;SDS011;42890;44.244;22.530;2024-02-16T02:22:18;19.00;;;17.00;;
56997;SDS011;42890;44.244;22.530;2024-02-16T02:24:44;36.08;;;26.65;;
56997;SDS011;42890;44.244;22.530;2024-02-16T02:27:11;72.63;;;42.75;;
56997;SDS011;42890;44.244;22.530;2024-02-16T02:29:38;55.53;;;38.50;;
56997;SDS011;42890;44.244;22.530;2024-02-16T02:32:04;170.90;;;84.93;;
56997;SDS011;42890;44.244;22.530;2024-02-16T02:34:31;102.75;;;63.67;;
56997;SDS011;42890;44.244;22.530;2024-02-16T02:36:57;123.25;;;66.07;;
56997;SDS011;42890;44.244;22.530;2024-02-16T02:39:23;38.00;;;28.52;;
56997;SDS011;42890;44.244;22.530;2024-02-16T02:41:50;19.83;;;17.55;;
56997;SDS011;42890;44.244;22.530;2024-02-16T02:44:16;25.00;;;21.05;;
56997;SDS011;42890;44.244;22.530;2024-02-16T02:46:42;39.50;;;27.58;;
56997;SDS011;42890;44.244;22.530;2024-02-16T02:49:08;133.25;;;64.38;;
56997;SDS011;42890;44.244;22.530;2024-02-16T02:51:34;129.15;;;65.38;;
56997;SDS011;42890;44.244;22.530;2024-02-16T02:54:00;117.97;;;62.55;;
56997;SDS011;42890;44.244;22.530;2024-02-16T02:56:26;147.57;;;79.07;;
56997;SDS011;42890;44.244;22.530;2024-02-16T02:58:52;407.55;;;220.40;;
56997;SDS011;42890;44.244;22.530;2024-02-16T03:01:19;294.25;;;144.27;;
56997;SDS011;42890;44.244;22.530;2024-02-16T03:03:46;160.10;;;82.10;;
56997;SDS011;42890;44.244;22.530;2024-02-16T03:06:12;147.63;;;78.95;;
56997;SDS011;42890;44.244;22.530;2024-02-16T03:08:38;142.80;;;80.57;;
56997;SDS011;42890;44.244;22.530;2024-02-16T03:11:05;133.82;;;74.38;;
56997;SDS011;42890;44.244;22.530;2024-02-16T03:13:34;73.82;;;52.35;;
56997;SDS011;42890;44.244;22.530;2024-02-16T03:16:00;71.78;;;47.92;;
56997;SDS011;42890;44.244;22.530;2024-02-16T03:18:29;85.43;;;56.25;;
56997;SDS011;42890;44.244;22.530;2024-02-16T03:20:55;152.38;;;78.38;;
56997;SDS011;42890;44.244;22.530;2024-02-16T03:23:22;253.15;;;129.27;;
56997;SDS011;42890;44.244;22.530;2024-02-16T03:25:48;306.42;;;163.63;;
56997;SDS011;42890;44.244;22.530;2024-02-16T03:28:14;278.05;;;149.25;;
56997;SDS011;42890;44.244;22.530;2024-02-16T03:30:41;265.77;;;128.02;;
56997;SDS011;42890;44.244;22.530;2024-02-16T03:33:07;242.52;;;114.25;;
56997;SDS011;42890;44.244;22.530;2024-02-16T03:35:34;254.55;;;119.82;;
56997;SDS011;42890;44.244;22.530;2024-02-16T03:38:00;218.43;;;108.88;;
56997;SDS011;42890;44.244;22.530;2024-02-16T03:40:26;191.32;;;96.40;;
56997;SDS011;42890;44.244;22.530;2024-02-16T03:42:52;169.23;;;84.68;;
56997;SDS011;42890;44.244;22.530;2024-02-16T03:45:19;197.82;;;97.55;;
56997;SDS011;42890;44.244;22.530;2024-02-16T03:47:45;197.35;;;89.57;;
56997;SDS011;42890;44.244;22.530;2024-02-16T03:50:13;171.00;;;78.70;;
56997;SDS011;42890;44.244;22.530;2024-02-16T03:52:40;157.90;;;70.88;;
56997;SDS011;42890;44.244;22.530;2024-02-16T03:55:06;170.65;;;81.22;;
56997;SDS011;42890;44.244;22.530;2024-02-16T03:57:32;160.25;;;76.68;;
56997;SDS011;42890;44.244;22.530;2024-02-16T03:59:58;109.47;;;61.78;;
56997;SDS011;42890;44.244;22.530;2024-02-16T04:02:25;97.45;;;55.92;;
56997;SDS011;42890;44.244;22.530;2024-02-16T04:04:51;145.00;;;69.20;;
56997;SDS011;42890;44.244;22.530;2024-02-16T04:07:17;99.43;;;60.15;;
56997;SDS011;42890;44.244;22.530;2024-02-16T04:09:43;125.60;;;63.38;;
56997;SDS011;42890;44.244;22.530;2024-02-16T04:12:09;123.63;;;58.67;;
56997;SDS011;42890;44.244;22.530;2024-02-16T04:14:35;102.10;;;57.75;;
56997;SDS011;42890;44.244;22.530;2024-02-16T04:17:01;103.10;;;55.10;;
56997;SDS011;42890;44.244;22.530;2024-02-16T04:19:28;105.05;;;53.88;;
56997;SDS011;42890;44.244;22.530;2024-02-16T04:21:55;150.43;;;70.78;;
56997;SDS011;42890;44.244;22.530;2024-02-16T04:24:21;81.93;;;47.53;;
56997;SDS011;42890;44.244;22.530;2024-02-16T04:26:47;69.75;;;49.30;;
56997;SDS011;42890;44.244;22.530;2024-02-16T04:29:14;55.88;;;37.00;;
56997;SDS011;42890;44.244;22.530;2024-02-16T04:31:41;49.05;;;35.20;;
56997;SDS011;42890;44.244;22.530;2024-02-16T04:34:09;37.97;;;27.23;;
56997;SDS011;42890;44.244;22.530;2024-02-16T04:36:36;35.88;;;28.45;;
56997;SDS011;42890;44.244;22.530;2024-02-16T04:39:02;32.58;;;25.25;;
56997;SDS011;42890;44.244;22.530;2024-02-16T04:41:28;31.25;;;24.08;;
56997;SDS011;42890;44.244;22.530;2024-02-16T04:43:55;29.27;;;19.58;;
56997;SDS011;42890;44.244;22.530;2024-02-16T04:46:21;20.80;;;18.58;;
56997;SDS011;42890;44.244;22.530;2024-02-16T04:48:48;38.10;;;26.48;;
56997;SDS011;42890;44.244;22.530;2024-02-16T04:51:14;52.80;;;33.45;;
56997;SDS011;42890;44.244;22.530;2024-02-16T04:53:40;49.72;;;34.63;;
56997;SDS011;42890;44.244;22.530;2024-02-16T04:56:06;49.95;;;34.13;;
56997;SDS011;42890;44.244;22.530;2024-02-16T04:58:33;38.42;;;25.83;;
56997;SDS011;42890;44.244;22.530;2024-02-16T05:00:59;35.38;;;26.27;;
56997;SDS011;42890;44.244;22.530;2024-02-16T05:03:25;27.00;;;22.35;;
56997;SDS011;42890;44.244;22.530;2024-02-16T05:05:51;25.45;;;21.65;;
56997;SDS011;42890;44.244;22.530;2024-02-16T05:08:18;28.25;;;22.65;;
56997;SDS011;42890;44.244;22.530;2024-02-16T05:10:44;26.25;;;23.45;;
56997;SDS011;42890;44.244;22.530;2024-02-16T05:13:10;30.88;;;22.80;;
56997;SDS011;42890;44.244;22.530;2024-02-16T05:15:37;29.20;;;23.95;;
56997;SDS011;42890;44.244;22.530;2024-02-16T05:18:03;40.08;;;29.98;;
56997;SDS011;42890;44.244;22.530;2024-02-16T05:20:29;44.47;;;32.83;;
56997;SDS011;42890;44.244;22.530;2024-02-16T05:22:55;45.10;;;32.83;;
56997;SDS011;42890;44.244;22.530;2024-02-16T05:25:22;54.38;;;38.63;;
56997;SDS011;42890;44.244;22.530;2024-02-16T05:27:48;56.03;;;38.38;;
56997;SDS011;42890;44.244;22.530;2024-02-16T05:30:14;64.28;;;44.60;;
56997;SDS011;42890;44.244;22.530;2024-02-16T05:32:41;84.82;;;49.75;;
56997;SDS011;42890;44.244;22.530;2024-02-16T05:35:08;83.57;;;50.13;;
56997;SDS011;42890;44.244;22.530;2024-02-16T05:37:38;108.45;;;54.70;;
56997;SDS011;42890;44.244;22.530;2024-02-16T05:40:08;134.40;;;65.85;;
56997;SDS011;42890;44.244;22.530;2024-02-16T05:42:45;128.63;;;61.60;;
56997;SDS011;42890;44.244;22.530;2024-02-16T05:45:12;163.80;;;74.75;;
56997;SDS011;42890;44.244;22.530;2024-02-16T05:47:38;502.42;;;224.63;;
56997;SDS011;42890;44.244;22.530;2024-02-16T05:50:04;164.55;;;74.35;;
56997;SDS011;42890;44.244;22.530;2024-02-16T05:52:32;137.77;;;71.00;;
56997;SDS011;42890;44.244;22.530;2024-02-16T05:54:58;98.50;;;58.92;;
56997;SDS011;42890;44.244;22.530;2024-02-16T05:57:24;63.63;;;45.85;;
56997;SDS011;42890;44.244;22.530;2024-02-16T05:59:50;90.80;;;55.65;;
56997;SDS011;42890;44.244;22.530;2024-02-16T06:02:17;203.20;;;105.60;;
56997;SDS011;42890;44.244;22.530;2024-02-16T06:04:43;193.65;;;96.20;;
56997;SDS011;42890;44.244;22.530;2024-02-16T06:07:09;221.95;;;104.53;;
56997;SDS011;42890;44.244;22.530;2024-02-16T06:09:36;180.60;;;87.90;;
56997;SDS011;42890;44.244;22.530;2024-02-16T06:12:02;128.35;;;67.10;;
56997;SDS011;42890;44.244;22.530;2024-02-16T06:14:30;119.35;;;66.65;;
56997;SDS011;42890;44.244;22.530;2024-02-16T06:16:56;130.73;;;68.22;;
56997;SDS011;42890;44.244;22.530;2024-02-16T06:19:22;133.90;;;70.90;;
56997;SDS011;42890;44.244;22.530;2024-02-16T06:21:48;116.78;;;59.97;;
56997;SDS011;42890;44.244;22.530;2024-02-16T06:24:14;218.43;;;99.68;;
56997;SDS011;42890;44.244;22.530;2024-02-16T06:26:40;149.82;;;74.65;;
56997;SDS011;42890;44.244;22.530;2024-02-16T06:29:08;207.55;;;99.90;;
56997;SDS011;42890;44.244;22.530;2024-02-16T06:31:34;273.83;;;132.23;;
56997;SDS011;42890;44.244;22.530;2024-02-16T06:34:00;278.65;;;130.20;;
56997;SDS011;42890;44.244;22.530;2024-02-16T06:36:28;306.30;;;130.13;;
56997;SDS011;42890;44.244;22.530;2024-02-16T06:38:54;324.42;;;133.50;;
56997;SDS011;42890;44.244;22.530;2024-02-16T06:41:20;384.75;;;157.40;;
56997;SDS011;42890;44.244;22.530;2024-02-16T06:43:46;410.33;;;173.48;;
56997;SDS011;42890;44.244;22.530;2024-02-16T06:46:12;337.60;;;139.50;;
56997;SDS011;42890;44.244;22.530;2024-02-16T06:48:38;342.92;;;137.60;;
56997;SDS011;42890;44.244;22.530;2024-02-16T06:51:04;477.70;;;227.38;;
56997;SDS011;42890;44.244;22.530;2024-02-16T06:53:32;560.10;;;290.23;;
56997;SDS011;42890;44.244;22.530;2024-02-16T06:55:58;708.63;;;368.92;;
56997;SDS011;42890;44.244;22.530;2024-02-16T06:58:24;746.42;;;391.48;;
56997;SDS011;42890;44.244;22.530;2024-02-16T07:00:50;763.40;;;416.02;;
56997;SDS011;42890;44.244;22.530;2024-02-16T07:03:17;817.55;;;461.08;;
56997;SDS011;42890;44.244;22.530;2024-02-16T07:05:43;829.88;;;437.20;;
56997;SDS011;42890;44.244;22.530;2024-02-16T07:08:09;792.70;;;427.95;;
56997;SDS011;42890;44.244;22.530;2024-02-16T07:10:35;705.28;;;379.10;;
56997;SDS011;42890;44.244;22.530;2024-02-16T07:13:02;692.63;;;369.50;;
56997;SDS011;42890;44.244;22.530;2024-02-16T07:15:29;658.28;;;358.52;;
56997;SDS011;42890;44.244;22.530;2024-02-16T07:17:55;585.42;;;321.42;;
56997;SDS011;42890;44.244;22.530;2024-02-16T07:20:22;532.70;;;292.77;;
56997;SDS011;42890;44.244;22.530;2024-02-16T07:22:48;463.52;;;245.85;;
56997;SDS011;42890;44.244;22.530;2024-02-16T07:25:16;450.65;;;238.40;;
56997;SDS011;42890;44.244;22.530;2024-02-16T07:27:43;431.70;;;209.57;;
56997;SDS011;42890;44.244;22.530;2024-02-16T07:30:09;389.95;;;172.38;;
56997;SDS011;42890;44.244;22.530;2024-02-16T07:32:38;441.20;;;210.13;;
56997;SDS011;42890;44.244;22.530;2024-02-16T07:35:05;455.05;;;203.60;;
56997;SDS011;42890;44.244;22.530;2024-02-16T07:37:31;486.23;;;229.68;;
56997;SDS011;42890;44.244;22.530;2024-02-16T07:39:57;439.98;;;204.25;;
56997;SDS011;42890;44.244;22.530;2024-02-16T07:42:23;395.45;;;163.40;;
56997;SDS011;42890;44.244;22.530;2024-02-16T07:44:50;278.05;;;121.63;;
56997;SDS011;42890;44.244;22.530;2024-02-16T07:47:16;286.25;;;121.35;;
56997;SDS011;42890;44.244;22.530;2024-02-16T07:49:43;344.30;;;141.70;;
56997;SDS011;42890;44.244;22.530;2024-02-16T07:52:10;285.15;;;117.72;;
56997;SDS011;42890;44.244;22.530;2024-02-16T07:54:36;308.15;;;131.43;;
56997;SDS011;42890;44.244;22.530;2024-02-16T07:57:02;401.45;;;170.50;;
56997;SDS011;42890;44.244;22.530;2024-02-16T07:59:29;396.50;;;162.15;;
56997;SDS011;42890;44.244;22.530;2024-02-16T08:01:55;448.05;;;206.98;;
56997;SDS011;42890;44.244;22.530;2024-02-16T08:04:21;426.83;;;180.38;;
56997;SDS011;42890;44.244;22.530;2024-02-16T08:06:47;418.42;;;181.75;;
56997;SDS011;42890;44.244;22.530;2024-02-16T08:09:13;468.85;;;220.52;;
56997;SDS011;42890;44.244;22.530;2024-02-16T08:11:40;487.63;;;228.75;;
56997;SDS011;42890;44.244;22.530;2024-02-16T08:14:07;674.38;;;338.73;;
56997;SDS011;42890;44.244;22.530;2024-02-16T08:16:33;680.50;;;342.38;;
56997;SDS011;42890;44.244;22.530;2024-02-16T08:19:00;776.88;;;398.65;;
56997;SDS011;42890;44.244;22.530;2024-02-16T08:21:26;892.17;;;456.45;;
56997;SDS011;42890;44.244;22.530;2024-02-16T08:23:52;874.63;;;456.13;;
56997;SDS011;42890;44.244;22.530;2024-02-16T08:26:18;845.63;;;430.25;;
56997;SDS011;42890;44.244;22.530;2024-02-16T08:28:44;597.33;;;289.80;;
56997;SDS011;42890;44.244;22.530;2024-02-16T08:31:14;712.13;;;353.33;;
56997;SDS011;42890;44.244;22.530;2024-02-16T08:33:41;867.55;;;440.67;;
56997;SDS011;42890;44.244;22.530;2024-02-16T08:36:08;837.42;;;424.80;;
56997;SDS011;42890;44.244;22.530;2024-02-16T08:38:34;802.63;;;394.38;;
56997;SDS011;42890;44.244;22.530;2024-02-16T08:41:01;730.30;;;362.42;;
56997;SDS011;42890;44.244;22.530;2024-02-16T08:43:28;708.55;;;347.42;;
56997;SDS011;42890;44.244;22.530;2024-02-16T08:45:54;672.58;;;330.73;;
56997;SDS011;42890;44.244;22.530;2024-02-16T08:48:21;604.35;;;291.98;;
56997;SDS011;42890;44.244;22.530;2024-02-16T08:50:47;594.28;;;286.55;;
56997;SDS011;42890;44.244;22.530;2024-02-16T08:53:15;500.73;;;215.63;;
56997;SDS011;42890;44.244;22.530;2024-02-16T08:55:42;451.80;;;194.82;;
56997;SDS011;42890;44.244;22.530;2024-02-16T08:58:08;447.65;;;192.80;;
56997;SDS011;42890;44.244;22.530;2024-02-16T09:00:35;437.77;;;181.05;;
56997;SDS011;42890;44.244;22.530;2024-02-16T09:03:01;445.35;;;186.43;;
56997;SDS011;42890;44.244;22.530;2024-02-16T09:05:27;416.70;;;168.50;;
56997;SDS011;42890;44.244;22.530;2024-02-16T09:07:54;383.67;;;145.73;;
56997;SDS011;42890;44.244;22.530;2024-02-16T09:10:20;358.15;;;137.98;;
56997;SDS011;42890;44.244;22.530;2024-02-16T09:12:46;359.33;;;139.38;;
56997;SDS011;42890;44.244;22.530;2024-02-16T09:15:12;313.77;;;121.63;;
56997;SDS011;42890;44.244;22.530;2024-02-16T09:17:38;279.67;;;112.40;;
56997;SDS011;42890;44.244;22.530;2024-02-16T09:20:04;282.95;;;106.20;;
56997;SDS011;42890;44.244;22.530;2024-02-16T09:22:33;265.55;;;109.70;;
56997;SDS011;42890;44.244;22.530;2024-02-16T09:25:01;272.65;;;101.60;;
56997;SDS011;42890;44.244;22.530;2024-02-16T09:27:28;257.67;;;104.45;;
56997;SDS011;42890;44.244;22.530;2024-02-16T09:29:54;263.90;;;101.72;;
56997;SDS011;42890;44.244;22.530;2024-02-16T09:32:20;266.67;;;108.80;;
56997;SDS011;42890;44.244;22.530;2024-02-16T09:34:47;259.05;;;105.68;;
56997;SDS011;42890;44.244;22.530;2024-02-16T09:37:13;239.30;;;98.97;;
56997;SDS011;42890;44.244;22.530;2024-02-16T09:39:41;272.65;;;107.57;;
56997;SDS011;42890;44.244;22.530;2024-02-16T09:42:07;270.60;;;108.88;;
56997;SDS011;42890;44.244;22.530;2024-02-16T09:44:34;266.63;;;105.78;;
56997;SDS011;42890;44.244;22.530;2024-02-16T09:47:02;233.80;;;97.55;;
56997;SDS011;42890;44.244;22.530;2024-02-16T09:49:28;233.55;;;92.97;;
56997;SDS011;42890;44.244;22.530;2024-02-16T09:51:55;221.50;;;93.13;;
56997;SDS011;42890;44.244;22.530;2024-02-16T09:54:25;219.52;;;89.57;;
56997;SDS011;42890;44.244;22.530;2024-02-16T09:56:51;211.75;;;84.82;;
56997;SDS011;42890;44.244;22.530;2024-02-16T09:59:17;187.85;;;80.88;;
56997;SDS011;42890;44.244;22.530;2024-02-16T10:01:44;193.38;;;77.03;;
56997;SDS011;42890;44.244;22.530;2024-02-16T10:04:10;183.18;;;73.80;;
56997;SDS011;42890;44.244;22.530;2024-02-16T10:06:45;181.25;;;76.65;;
56997;SDS011;42890;44.244;22.530;2024-02-16T10:09:24;184.38;;;76.75;;
56997;SDS011;42890;44.244;22.530;2024-02-16T10:11:50;174.45;;;68.70;;
56997;SDS011;42890;44.244;22.530;2024-02-16T10:14:17;138.15;;;59.92;;
56997;SDS011;42890;44.244;22.530;2024-02-16T10:16:58;146.85;;;60.40;;
56997;SDS011;42890;44.244;22.530;2024-02-16T10:19:24;134.10;;;58.97;;
56997;SDS011;42890;44.244;22.530;2024-02-16T10:21:50;146.20;;;63.42;;
56997;SDS011;42890;44.244;22.530;2024-02-16T10:24:21;145.68;;;54.45;;
56997;SDS011;42890;44.244;22.530;2024-02-16T10:26:47;122.97;;;55.78;;
56997;SDS011;42890;44.244;22.530;2024-02-16T10:29:15;134.90;;;57.50;;
56997;SDS011;42890;44.244;22.530;2024-02-16T10:31:44;148.43;;;58.63;;
56997;SDS011;42890;44.244;22.530;2024-02-16T10:34:11;112.70;;;56.28;;
56997;SDS011;42890;44.244;22.530;2024-02-16T10:36:37;134.60;;;55.30;;
56997;SDS011;42890;44.244;22.530;2024-02-16T10:39:04;97.93;;;50.28;;
56997;SDS011;42890;44.244;22.530;2024-02-16T10:41:41;88.88;;;46.67;;
56997;SDS011;42890;44.244;22.530;2024-02-16T10:44:07;56.17;;;35.67;;
56997;SDS011;42890;44.244;22.530;2024-02-16T10:46:34;73.13;;;41.40;;
56997;SDS011;42890;44.244;22.530;2024-02-16T10:49:01;59.90;;;36.10;;
56997;SDS011;42890;44.244;22.530;2024-02-16T10:51:37;105.60;;;49.20;;
56997;SDS011;42890;44.244;22.530;2024-02-16T10:54:04;156.05;;;72.53;;
56997;SDS011;42890;44.244;22.530;2024-02-16T10:56:32;138.57;;;60.72;;
56997;SDS011;42890;44.244;22.530;2024-02-16T10:59:01;133.05;;;60.20;;
56997;SDS011;42890;44.244;22.530;2024-02-16T11:01:28;98.28;;;49.22;;
56997;SDS011;42890;44.244;22.530;2024-02-16T11:04:01;70.72;;;39.65;;
56997;SDS011;42890;44.244;22.530;2024-02-16T11:06:27;59.67;;;36.50;;
56997;SDS011;42890;44.244;22.530;2024-02-16T11:08:54;45.60;;;25.05;;
56997;SDS011;42890;44.244;22.530;2024-02-16T11:11:23;45.95;;;26.23;;
56997;SDS011;42890;44.244;22.530;2024-02-16T11:13:49;39.42;;;24.65;;
56997;SDS011;42890;44.244;22.530;2024-02-16T11:16:15;31.15;;;20.95;;
56997;SDS011;42890;44.244;22.530;2024-02-16T11:18:45;27.98;;;18.35;;
56997;SDS011;42890;44.244;22.530;2024-02-16T11:21:12;37.50;;;22.42;;
56997;SDS011;42890;44.244;22.530;2024-02-16T11:23:40;70.50;;;34.80;;
56997;SDS011;42890;44.244;22.530;2024-02-16T11:26:09;48.60;;;32.58;;
56997;SDS011;42890;44.244;22.530;2024-02-16T11:28:40;54.65;;;31.05;;
56997;SDS011;42890;44.244;22.530;2024-02-16T11:31:07;45.40;;;25.63;;
56997;SDS011;42890;44.244;22.530;2024-02-16T11:33:33;44.60;;;25.30;;
56997;SDS011;42890;44.244;22.530;2024-02-16T11:36:00;43.53;;;27.63;;
56997;SDS011;42890;44.244;22.530;2024-02-16T11:38:26;40.22;;;26.25;;
56997;SDS011;42890;44.244;22.530;2024-02-16T11:40:53;58.20;;;29.40;;
56997;SDS011;42890;44.244;22.530;2024-02-16T11:43:22;31.98;;;21.70;;
56997;SDS011;42890;44.244;22.530;2024-02-16T11:45:49;29.67;;;19.85;;
56997;SDS011;42890;44.244;22.530;2024-02-16T11:48:22;32.67;;;22.10;;
56997;SDS011;42890;44.244;22.530;2024-02-16T11:50:48;26.88;;;19.60;;
56997;SDS011;42890;44.244;22.530;2024-02-16T11:53:16;44.83;;;28.20;;
56997;SDS011;42890;44.244;22.530;2024-02-16T11:55:46;55.70;;;35.95;;
56997;SDS011;42890;44.244;22.530;2024-02-16T11:58:16;47.38;;;32.55;;
56997;SDS011;42890;44.244;22.530;2024-02-16T12:00:44;45.22;;;29.83;;
56997;SDS011;42890;44.244;22.530;2024-02-16T12:03:10;33.45;;;22.20;;
56997;SDS011;42890;44.244;22.530;2024-02-16T12:05:37;21.85;;;15.43;;
56997;SDS011;42890;44.244;22.530;2024-02-16T12:08:05;20.48;;;16.17;;
56997;SDS011;42890;44.244;22.530;2024-02-16T12:10:32;29.45;;;20.80;;
56997;SDS011;42890;44.244;22.530;2024-02-16T12:12:59;30.67;;;20.95;;
56997;SDS011;42890;44.244;22.530;2024-02-16T12:15:26;12.95;;;11.35;;
56997;SDS011;42890;44.244;22.530;2024-02-16T12:17:59;13.75;;;12.35;;
56997;SDS011;42890;44.244;22.530;2024-02-16T12:20:26;15.82;;;13.82;;
56997;SDS011;42890;44.244;22.530;2024-02-16T12:22:52;18.90;;;16.48;;
56997;SDS011;42890;44.244;22.530;2024-02-16T12:25:18;23.48;;;17.83;;
56997;SDS011;42890;44.244;22.530;2024-02-16T12:27:44;18.35;;;16.00;;
56997;SDS011;42890;44.244;22.530;2024-02-16T12:30:10;16.08;;;13.13;;
56997;SDS011;42890;44.244;22.530;2024-02-16T12:32:37;21.15;;;16.42;;
56997;SDS011;42890;44.244;22.530;2024-02-16T12:35:03;17.42;;;12.98;;
56997;SDS011;42890;44.244;22.530;2024-02-16T12:37:30;15.38;;;12.88;;
56997;SDS011;42890;44.244;22.530;2024-02-16T12:39:56;28.05;;;19.63;;
56997;SDS011;42890;44.244;22.530;2024-02-16T12:42:22;15.00;;;12.48;;
56997;SDS011;42890;44.244;22.530;2024-02-16T12:44:49;12.30;;;11.07;;
56997;SDS011;42890;44.244;22.530;2024-02-16T12:47:15;16.65;;;11.77;;
56997;SDS011;42890;44.244;22.530;2024-02-16T12:49:41;14.00;;;12.50;;
56997;SDS011;42890;44.244;22.530;2024-02-16T12:52:07;11.65;;;10.35;;
56997;SDS011;42890;44.244;22.530;2024-02-16T12:54:33;10.88;;;8.77;;
56997;SDS011;42890;44.244;22.530;2024-02-16T12:56:59;15.77;;;12.15;;
56997;SDS011;42890;44.244;22.530;2024-02-16T12:59:25;16.70;;;14.05;;
56997;SDS011;42890;44.244;22.530;2024-02-16T13:01:52;21.92;;;17.20;;
56997;SDS011;42890;44.244;22.530;2024-02-16T13:04:18;32.00;;;21.50;;
56997;SDS011;42890;44.244;22.530;2024-02-16T13:06:46;39.42;;;26.85;;
56997;SDS011;42890;44.244;22.530;2024-02-16T13:09:13;12.50;;;11.20;;
56997;SDS011;42890;44.244;22.530;2024-02-16T13:11:39;15.45;;;13.85;;
56997;SDS011;42890;44.244;22.530;2024-02-16T13:14:06;11.57;;;10.32;;
56997;SDS011;42890;44.244;22.530;2024-02-16T13:16:32;12.43;;;11.15;;
56997;SDS011;42890;44.244;22.530;2024-02-16T13:18:58;13.45;;;11.02;;
56997;SDS011;42890;44.244;22.530;2024-02-16T13:21:24;9.88;;;8.32;;
56997;SDS011;42890;44.244;22.530;2024-02-16T13:23:51;10.88;;;9.82;;
56997;SDS011;42890;44.244;22.530;2024-02-16T13:26:17;9.80;;;8.60;;
56997;SDS011;42890;44.244;22.530;2024-02-16T13:28:43;12.80;;;9.23;;
56997;SDS011;42890;44.244;22.530;2024-02-16T13:31:09;12.20;;;10.65;;
56997;SDS011;42890;44.244;22.530;2024-02-16T13:33:36;15.65;;;12.45;;
56997;SDS011;42890;44.244;22.530;2024-02-16T13:36:02;14.40;;;13.05;;
56997;SDS011;42890;44.244;22.530;2024-02-16T13:38:30;14.40;;;12.75;;
56997;SDS011;42890;44.244;22.530;2024-02-16T13:40:56;28.33;;;23.52;;
56997;SDS011;42890;44.244;22.530;2024-02-16T13:43:22;19.63;;;15.23;;
56997;SDS011;42890;44.244;22.530;2024-02-16T13:45:52;17.70;;;14.20;;
56997;SDS011;42890;44.244;22.530;2024-02-16T13:48:18;16.88;;;15.15;;
56997;SDS011;42890;44.244;22.530;2024-02-16T13:50:48;10.25;;;9.25;;
56997;SDS011;42890;44.244;22.530;2024-02-16T13:53:14;14.95;;;11.38;;
56997;SDS011;42890;44.244;22.530;2024-02-16T13:55:41;18.15;;;14.30;;